createdAt,value
2018-12-05T00:04:59.408Z,10.73
2018-12-05T00:11:04.112Z,10.60
2018-12-05T00:17:08.800Z,14.77
2018-12-05T00:23:13.463Z,13.30
2018-12-05T00:29:18.186Z,9.30
2018-12-05T00:35:22.986Z,11.13
2018-12-05T00:41:27.689Z,9.83
2018-12-05T00:47:32.539Z,12.60
2018-12-05T00:53:37.308Z,10.90
2018-12-05T00:59:41.995Z,11.10
2018-12-05T01:05:46.674Z,8.63
2018-12-05T01:11:51.469Z,9.53
2018-12-05T01:17:56.151Z,9.43
2018-12-05T01:24:00.951Z,13.00
2018-12-05T01:30:06.107Z,12.03
2018-12-05T01:36:10.832Z,10.50
2018-12-05T01:42:22.323Z,15.27
2018-12-05T01:48:27.114Z,12.27
2018-12-05T01:54:32.090Z,12.40
2018-12-05T02:00:36.777Z,12.53
2018-12-05T02:06:41.866Z,13.13
2018-12-05T02:12:46.658Z,16.47
2018-12-05T02:18:51.367Z,16.53
2018-12-05T02:24:56.101Z,18.80
2018-12-05T02:31:00.775Z,18.83
2018-12-05T02:37:05.666Z,18.20
2018-12-05T02:43:10.474Z,17.07
2018-12-05T02:49:15.190Z,16.10
2018-12-05T02:55:20.348Z,16.77
2018-12-05T03:01:25.056Z,14.87
2018-12-05T03:07:29.782Z,18.17
2018-12-05T03:13:34.623Z,16.50
2018-12-05T03:19:39.399Z,16.67
2018-12-05T03:25:44.352Z,16.13
2018-12-05T03:31:49.134Z,15.67
2018-12-05T03:37:53.823Z,17.77
2018-12-05T03:43:58.570Z,16.37
2018-12-05T03:50:03.897Z,21.07
2018-12-05T03:56:08.583Z,17.50
2018-12-05T04:02:13.412Z,19.97
2018-12-05T04:08:18.190Z,19.97
2018-12-05T04:14:22.969Z,17.20
2018-12-05T04:20:27.652Z,26.00
2018-12-05T04:26:32.393Z,22.43
2018-12-05T04:32:37.069Z,21.13
2018-12-05T04:38:41.746Z,28.03
2018-12-05T04:44:46.542Z,28.27
2018-12-05T04:50:51.522Z,21.60
2018-12-05T04:56:56.384Z,28.70
2018-12-05T05:03:01.124Z,26.83
2018-12-05T05:09:08.293Z,26.07
2018-12-05T05:15:13.014Z,30.60
2018-12-05T05:21:18.217Z,25.63
2018-12-05T05:27:22.881Z,28.53
2018-12-05T05:33:27.800Z,25.67
2018-12-05T05:39:32.791Z,21.43
2018-12-05T05:45:37.681Z,23.60
2018-12-05T05:51:42.563Z,21.93
2018-12-05T05:57:47.513Z,20.13
2018-12-05T06:03:52.333Z,18.97
2018-12-05T06:09:57.167Z,19.07
2018-12-05T06:16:01.882Z,18.10
2018-12-05T06:22:06.727Z,16.40
2018-12-05T06:28:11.596Z,19.23
2018-12-05T06:34:16.462Z,17.30
2018-12-05T06:40:21.158Z,21.43
2018-12-05T06:46:25.866Z,17.67
2018-12-05T06:52:30.747Z,15.77
2018-12-05T06:58:35.532Z,18.73
2018-12-05T07:04:41.055Z,11.60
2018-12-05T07:10:46.268Z,14.70
2018-12-05T07:16:51.039Z,13.17
2018-12-05T07:22:55.850Z,15.23
2018-12-05T07:29:01.010Z,14.40
2018-12-05T07:35:06.716Z,18.87
2018-12-05T07:41:18.209Z,12.10
2018-12-05T07:47:23.517Z,17.00
2018-12-05T07:53:28.450Z,12.63
2018-12-05T07:59:33.299Z,14.30
2018-12-05T08:05:38.151Z,14.83
2018-12-05T08:11:42.803Z,11.87
2018-12-05T08:17:47.514Z,11.43
2018-12-05T08:23:52.175Z,16.23
2018-12-05T08:29:56.901Z,9.40
2018-12-05T08:36:01.881Z,8.23
2018-12-05T08:42:06.750Z,11.03
2018-12-05T08:48:11.542Z,9.07
2018-12-05T08:54:20.992Z,7.00
2018-12-05T09:00:23.598Z,36.13
2018-12-05T09:06:28.677Z,10.90
2018-12-05T09:12:33.696Z,9.33
2018-12-05T09:18:38.358Z,10.70
2018-12-05T09:24:43.046Z,10.27
2018-12-05T09:30:47.869Z,15.10
2018-12-05T09:36:52.773Z,8.80
2018-12-05T09:42:57.520Z,8.50
2018-12-05T09:49:02.230Z,9.83
2018-12-05T09:55:07.398Z,14.50
2018-12-05T10:01:12.257Z,10.93
2018-12-05T10:07:16.996Z,9.67
2018-12-05T10:13:22.049Z,15.00
2018-12-05T10:19:26.724Z,9.83
2018-12-05T10:25:31.514Z,13.03
2018-12-05T10:31:36.214Z,11.93
2018-12-05T10:37:41.056Z,10.27
2018-12-05T10:43:45.994Z,12.97
2018-12-05T10:49:50.955Z,14.83
2018-12-05T10:55:55.651Z,12.07
2018-12-05T11:02:05.703Z,13.97
2018-12-05T11:08:15.910Z,12.83
2018-12-05T11:14:25.816Z,13.13
2018-12-05T11:20:35.432Z,14.73
2018-12-05T11:26:40.514Z,11.43
2018-12-05T11:32:45.210Z,11.20
2018-12-05T11:38:50.164Z,14.00
2018-12-05T11:44:55.002Z,10.10
2018-12-05T11:50:59.853Z,11.00
2018-12-05T11:57:04.702Z,14.00
2018-12-05T12:03:09.435Z,14.00
2018-12-05T12:09:14.131Z,19.33
2018-12-05T12:15:22.513Z,13.30
2018-12-05T12:21:27.362Z,14.27
2018-12-05T12:27:32.483Z,11.47
2018-12-05T12:33:37.353Z,14.23
2018-12-05T12:39:42.106Z,13.50
2018-12-05T12:45:53.719Z,15.73
2018-12-05T12:51:58.483Z,12.10
2018-12-05T12:58:03.482Z,11.20
2018-12-05T13:04:08.457Z,12.70
2018-12-05T13:10:13.220Z,12.47
2018-12-05T13:16:17.962Z,10.80
2018-12-05T13:22:23.077Z,12.50
2018-12-05T13:28:28.018Z,13.03
2018-12-05T13:34:32.735Z,12.57
2018-12-05T13:40:37.504Z,12.07
2018-12-05T13:46:42.215Z,12.77
2018-12-05T13:52:47.011Z,11.97
2018-12-05T13:58:51.980Z,12.00
2018-12-05T14:04:56.942Z,11.67
2018-12-05T14:11:01.688Z,10.57
2018-12-05T14:17:06.425Z,13.87
2018-12-05T14:23:11.353Z,10.10
2018-12-05T14:29:16.131Z,11.07
2018-12-05T14:35:20.978Z,10.33
2018-12-05T14:41:25.685Z,10.90
2018-12-05T14:47:30.476Z,10.63
2018-12-05T14:53:35.230Z,10.97
2018-12-05T14:59:40.159Z,11.87
2018-12-05T15:05:45.096Z,15.07
2018-12-05T15:11:49.872Z,13.57
2018-12-05T15:17:54.583Z,11.87
2018-12-05T15:23:59.454Z,12.87
2018-12-05T15:30:04.604Z,12.17
2018-12-05T15:36:09.373Z,11.40
2018-12-05T15:42:14.132Z,12.57
2018-12-05T15:48:20.710Z,14.77
2018-12-05T15:54:25.660Z,11.20
2018-12-05T16:00:30.570Z,11.13
2018-12-05T16:06:35.602Z,13.37
2018-12-05T16:12:40.365Z,10.03
2018-12-05T16:18:45.178Z,10.27
2018-12-05T16:24:49.953Z,12.07
2018-12-05T16:30:54.708Z,9.90
2018-12-05T16:36:59.529Z,9.63
2018-12-05T16:43:04.287Z,9.50
2018-12-05T16:49:09.554Z,9.87
2018-12-05T16:55:14.358Z,11.90
2018-12-05T17:01:19.146Z,15.07
2018-12-05T17:07:27.076Z,10.17
2018-12-05T17:13:31.818Z,12.13
2018-12-05T17:19:36.743Z,11.77
2018-12-05T17:25:41.526Z,13.80
2018-12-05T17:31:46.260Z,13.57
2018-12-05T17:37:51.047Z,11.40
2018-12-05T17:43:55.826Z,11.20
2018-12-05T17:50:00.559Z,12.17
2018-12-05T17:56:05.437Z,11.03
2018-12-05T18:02:10.178Z,11.10
2018-12-05T18:08:15.022Z,10.07
2018-12-05T18:14:19.729Z,13.70
2018-12-05T18:20:24.650Z,10.17
2018-12-05T18:26:29.429Z,11.73
2018-12-05T18:32:34.188Z,10.47
2018-12-05T18:38:38.971Z,10.87
2018-12-05T18:44:43.684Z,10.07
2018-12-05T18:50:48.501Z,9.43
2018-12-05T18:56:53.303Z,10.60
2018-12-05T19:02:58.103Z,8.70
2018-12-05T19:09:04.298Z,8.83
2018-12-05T19:15:09.659Z,8.10
2018-12-05T19:21:14.456Z,8.47
2018-12-05T19:27:19.181Z,8.40
2018-12-05T19:33:24.215Z,8.47
2018-12-05T19:39:29.069Z,8.70
2018-12-05T19:45:33.803Z,8.97
2018-12-05T19:51:38.641Z,11.30
2018-12-05T19:57:43.436Z,8.10
2018-12-05T20:03:48.665Z,8.17
2018-12-05T20:09:53.406Z,8.20
2018-12-05T20:15:58.123Z,7.33
2018-12-05T20:22:02.991Z,8.17
2018-12-05T20:28:07.726Z,7.73
2018-12-05T20:34:12.570Z,7.50
2018-12-05T20:40:17.369Z,7.43
2018-12-05T20:46:22.150Z,7.63
2018-12-05T20:52:27.014Z,7.97
2018-12-05T20:58:31.857Z,8.00
2018-12-05T21:04:36.903Z,8.50
2018-12-05T21:10:44.200Z,8.10
2018-12-05T21:16:49.203Z,9.70
2018-12-05T21:22:54.291Z,8.47
2018-12-05T21:28:59.232Z,8.70
2018-12-05T21:35:04.491Z,9.00
2018-12-05T21:41:13.105Z,9.13
2018-12-05T21:47:18.065Z,8.87
2018-12-05T21:53:23.058Z,9.00
2018-12-05T21:59:28.277Z,9.70
2018-12-05T22:05:33.019Z,9.40
2018-12-05T22:11:40.769Z,10.07
2018-12-05T22:17:45.646Z,11.57
2018-12-05T22:23:50.432Z,9.10
2018-12-05T22:29:55.234Z,10.03
2018-12-05T22:36:00.136Z,10.43
2018-12-05T22:42:05.169Z,9.57
2018-12-05T22:48:10.222Z,9.43
2018-12-05T22:54:15.261Z,10.20
2018-12-05T23:00:25.944Z,10.17
2018-12-05T23:07:10.480Z,10.50
2018-12-05T23:13:15.472Z,9.37
2018-12-05T23:19:20.314Z,8.77
2018-12-05T23:25:25.159Z,9.40
2018-12-05T23:31:29.887Z,9.70
2018-12-05T23:37:34.733Z,10.03
2018-12-05T23:43:39.458Z,8.67
2018-12-05T23:49:44.142Z,8.30
2018-12-05T23:55:48.880Z,7.90
